sensor_id;sensor_type;location;lat;lon;timestamp;P1;durP1;ratioP1;P2;durP2;ratioP2
1693;SDS011;844;47.058;15.472;2023-03-12T00:00:06;3.50;;;2.60;;
1693;SDS011;844;47.058;15.472;2023-03-12T00:02:40;3.03;;;2.73;;
1693;SDS011;844;47.058;15.472;2023-03-12T00:05:12;3.63;;;2.23;;
1693;SDS011;844;47.058;15.472;2023-03-12T00:07:46;3.10;;;2.50;;
1693;SDS011;844;47.058;15.472;2023-03-12T00:10:17;2.80;;;2.60;;
1693;SDS011;844;47.058;15.472;2023-03-12T00:12:50;3.23;;;2.43;;
1693;SDS011;844;47.058;15.472;2023-03-12T00:15:20;2.60;;;2.13;;
1693;SDS011;844;47.058;15.472;2023-03-12T00:17:52;4.47;;;3.00;;
1693;SDS011;844;47.058;15.472;2023-03-12T00:20:23;5.03;;;2.30;;
1693;SDS011;844;47.058;15.472;2023-03-12T00:22:53;2.67;;;2.47;;
1693;SDS011;844;47.058;15.472;2023-03-12T00:25:24;2.53;;;2.10;;
1693;SDS011;844;47.058;15.472;2023-03-12T00:27:57;3.80;;;2.73;;
1693;SDS011;844;47.058;15.472;2023-03-12T00:30:27;3.10;;;2.80;;
1693;SDS011;844;47.058;15.472;2023-03-12T00:33:00;3.10;;;2.40;;
1693;SDS011;844;47.058;15.472;2023-03-12T00:35:31;4.87;;;2.53;;
1693;SDS011;844;47.058;15.472;2023-03-12T00:38:02;3.30;;;2.83;;
1693;SDS011;844;47.058;15.472;2023-03-12T00:40:34;4.50;;;2.60;;
1693;SDS011;844;47.058;15.472;2023-03-12T00:43:08;3.83;;;2.90;;
1693;SDS011;844;47.058;15.472;2023-03-12T00:45:39;2.47;;;2.27;;
1693;SDS011;844;47.058;15.472;2023-03-12T00:48:12;4.03;;;2.60;;
1693;SDS011;844;47.058;15.472;2023-03-12T00:50:42;3.60;;;2.13;;
1693;SDS011;844;47.058;15.472;2023-03-12T00:53:12;4.00;;;2.97;;
1693;SDS011;844;47.058;15.472;2023-03-12T00:55:43;2.83;;;2.40;;
1693;SDS011;844;47.058;15.472;2023-03-12T00:58:13;2.90;;;2.50;;
1693;SDS011;844;47.058;15.472;2023-03-12T01:00:44;10.20;;;2.70;;
1693;SDS011;844;47.058;15.472;2023-03-12T01:03:17;3.40;;;3.10;;
1693;SDS011;844;47.058;15.472;2023-03-12T01:05:48;3.83;;;3.00;;
1693;SDS011;844;47.058;15.472;2023-03-12T01:08:22;4.30;;;3.20;;
1693;SDS011;844;47.058;15.472;2023-03-12T01:10:52;3.57;;;2.90;;
1693;SDS011;844;47.058;15.472;2023-03-12T01:13:23;3.33;;;2.47;;
1693;SDS011;844;47.058;15.472;2023-03-12T01:15:53;4.97;;;2.60;;
1693;SDS011;844;47.058;15.472;2023-03-12T01:18:26;4.07;;;2.70;;
1693;SDS011;844;47.058;15.472;2023-03-12T01:20:57;3.80;;;2.90;;
1693;SDS011;844;47.058;15.472;2023-03-12T01:23:28;3.77;;;2.90;;
1693;SDS011;844;47.058;15.472;2023-03-12T01:25:59;2.80;;;2.43;;
1693;SDS011;844;47.058;15.472;2023-03-12T01:28:30;3.30;;;3.00;;
1693;SDS011;844;47.058;15.472;2023-03-12T01:31:05;3.40;;;2.57;;
1693;SDS011;844;47.058;15.472;2023-03-12T01:33:38;3.07;;;2.50;;
1693;SDS011;844;47.058;15.472;2023-03-12T01:36:13;4.20;;;2.90;;
1693;SDS011;844;47.058;15.472;2023-03-12T01:38:46;4.50;;;2.93;;
1693;SDS011;844;47.058;15.472;2023-03-12T01:41:18;9.83;;;5.10;;
1693;SDS011;844;47.058;15.472;2023-03-12T01:43:49;5.27;;;3.50;;
1693;SDS011;844;47.058;15.472;2023-03-12T01:46:23;7.20;;;4.13;;
1693;SDS011;844;47.058;15.472;2023-03-12T01:49:03;11.77;;;6.00;;
1693;SDS011;844;47.058;15.472;2023-03-12T01:51:37;15.57;;;7.43;;
1693;SDS011;844;47.058;15.472;2023-03-12T01:54:11;14.80;;;7.67;;
1693;SDS011;844;47.058;15.472;2023-03-12T01:56:44;16.07;;;8.07;;
1693;SDS011;844;47.058;15.472;2023-03-12T01:59:16;14.13;;;10.40;;
1693;SDS011;844;47.058;15.472;2023-03-12T02:01:48;15.90;;;10.57;;
1693;SDS011;844;47.058;15.472;2023-03-12T02:04:21;17.57;;;9.03;;
1693;SDS011;844;47.058;15.472;2023-03-12T02:06:57;20.90;;;8.90;;
1693;SDS011;844;47.058;15.472;2023-03-12T02:09:31;14.60;;;7.70;;
1693;SDS011;844;47.058;15.472;2023-03-12T02:12:03;16.37;;;11.13;;
1693;SDS011;844;47.058;15.472;2023-03-12T02:14:34;17.90;;;9.60;;
1693;SDS011;844;47.058;15.472;2023-03-12T02:17:05;14.20;;;8.53;;
1693;SDS011;844;47.058;15.472;2023-03-12T02:19:40;15.53;;;7.27;;
1693;SDS011;844;47.058;15.472;2023-03-12T02:22:15;10.73;;;5.90;;
1693;SDS011;844;47.058;15.472;2023-03-12T02:24:47;9.30;;;5.20;;
1693;SDS011;844;47.058;15.472;2023-03-12T02:27:23;11.93;;;7.20;;
1693;SDS011;844;47.058;15.472;2023-03-12T02:29:54;9.30;;;6.60;;
1693;SDS011;844;47.058;15.472;2023-03-12T02:32:26;13.73;;;6.37;;
1693;SDS011;844;47.058;15.472;2023-03-12T02:35:00;11.33;;;6.70;;
1693;SDS011;844;47.058;15.472;2023-03-12T02:37:31;10.97;;;6.17;;
1693;SDS011;844;47.058;15.472;2023-03-12T02:40:03;10.83;;;5.90;;
1693;SDS011;844;47.058;15.472;2023-03-12T02:42:39;7.60;;;5.80;;
1693;SDS011;844;47.058;15.472;2023-03-12T02:45:12;8.00;;;5.03;;
1693;SDS011;844;47.058;15.472;2023-03-12T02:47:43;6.37;;;3.80;;
1693;SDS011;844;47.058;15.472;2023-03-12T02:50:14;5.77;;;4.23;;
1693;SDS011;844;47.058;15.472;2023-03-12T02:52:45;6.47;;;4.37;;
1693;SDS011;844;47.058;15.472;2023-03-12T02:55:17;6.10;;;3.70;;
1693;SDS011;844;47.058;15.472;2023-03-12T02:57:50;4.90;;;3.37;;
1693;SDS011;844;47.058;15.472;2023-03-12T03:00:25;5.70;;;3.87;;
1693;SDS011;844;47.058;15.472;2023-03-12T03:02:59;7.27;;;5.10;;
1693;SDS011;844;47.058;15.472;2023-03-12T03:05:29;5.97;;;4.43;;
1693;SDS011;844;47.058;15.472;2023-03-12T03:08:04;5.80;;;3.90;;
1693;SDS011;844;47.058;15.472;2023-03-12T03:10:36;4.50;;;3.73;;
1693;SDS011;844;47.058;15.472;2023-03-12T03:13:10;4.67;;;3.20;;
1693;SDS011;844;47.058;15.472;2023-03-12T03:15:41;4.40;;;3.40;;
1693;SDS011;844;47.058;15.472;2023-03-12T03:18:13;3.23;;;2.87;;
1693;SDS011;844;47.058;15.472;2023-03-12T03:20:44;6.67;;;3.77;;
1693;SDS011;844;47.058;15.472;2023-03-12T03:23:16;7.47;;;5.27;;
1693;SDS011;844;47.058;15.472;2023-03-12T03:25:48;9.30;;;7.13;;
1693;SDS011;844;47.058;15.472;2023-03-12T03:28:23;14.93;;;9.43;;
1693;SDS011;844;47.058;15.472;2023-03-12T03:30:56;14.10;;;8.03;;
1693;SDS011;844;47.058;15.472;2023-03-12T03:33:30;8.87;;;6.97;;
1693;SDS011;844;47.058;15.472;2023-03-12T03:36:03;7.90;;;5.20;;
1693;SDS011;844;47.058;15.472;2023-03-12T03:38:36;5.77;;;5.17;;
1693;SDS011;844;47.058;15.472;2023-03-12T03:41:06;3.80;;;3.40;;
1693;SDS011;844;47.058;15.472;2023-03-12T03:43:39;4.77;;;3.60;;
1693;SDS011;844;47.058;15.472;2023-03-12T03:46:09;3.37;;;2.70;;
1693;SDS011;844;47.058;15.472;2023-03-12T03:48:40;2.10;;;1.83;;
1693;SDS011;844;47.058;15.472;2023-03-12T03:51:12;4.60;;;2.00;;
1693;SDS011;844;47.058;15.472;2023-03-12T03:53:42;3.33;;;2.77;;
1693;SDS011;844;47.058;15.472;2023-03-12T03:56:13;3.10;;;2.80;;
1693;SDS011;844;47.058;15.472;2023-03-12T03:58:46;3.50;;;2.93;;
1693;SDS011;844;47.058;15.472;2023-03-12T04:01:16;4.03;;;3.47;;
1693;SDS011;844;47.058;15.472;2023-03-12T04:03:47;4.80;;;3.00;;
1693;SDS011;844;47.058;15.472;2023-03-12T04:06:18;4.47;;;3.33;;
1693;SDS011;844;47.058;15.472;2023-03-12T04:08:49;4.67;;;3.40;;
1693;SDS011;844;47.058;15.472;2023-03-12T04:11:19;4.20;;;2.70;;
1693;SDS011;844;47.058;15.472;2023-03-12T04:13:52;4.40;;;4.00;;
1693;SDS011;844;47.058;15.472;2023-03-12T04:16:23;5.77;;;3.30;;
1693;SDS011;844;47.058;15.472;2023-03-12T04:18:53;2.93;;;2.67;;
1693;SDS011;844;47.058;15.472;2023-03-12T04:21:23;3.17;;;2.77;;
1693;SDS011;844;47.058;15.472;2023-03-12T04:23:54;3.40;;;2.97;;
1693;SDS011;844;47.058;15.472;2023-03-12T04:26:25;3.67;;;2.60;;
1693;SDS011;844;47.058;15.472;2023-03-12T04:28:59;2.93;;;2.63;;
1693;SDS011;844;47.058;15.472;2023-03-12T04:31:30;4.10;;;2.47;;
1693;SDS011;844;47.058;15.472;2023-03-12T04:34:00;2.97;;;2.73;;
1693;SDS011;844;47.058;15.472;2023-03-12T04:36:31;3.10;;;2.37;;
1693;SDS011;844;47.058;15.472;2023-03-12T04:39:02;3.07;;;2.30;;
1693;SDS011;844;47.058;15.472;2023-03-12T04:41:34;2.60;;;2.10;;
1693;SDS011;844;47.058;15.472;2023-03-12T04:44:07;3.63;;;2.60;;
1693;SDS011;844;47.058;15.472;2023-03-12T04:46:40;2.57;;;2.10;;
1693;SDS011;844;47.058;15.472;2023-03-12T04:49:11;2.97;;;1.90;;
1693;SDS011;844;47.058;15.472;2023-03-12T04:51:42;3.20;;;2.40;;
1693;SDS011;844;47.058;15.472;2023-03-12T04:54:13;4.90;;;2.77;;
1693;SDS011;844;47.058;15.472;2023-03-12T04:56:43;4.60;;;2.50;;
1693;SDS011;844;47.058;15.472;2023-03-12T04:59:16;2.80;;;2.50;;
1693;SDS011;844;47.058;15.472;2023-03-12T05:01:47;2.33;;;2.13;;
1693;SDS011;844;47.058;15.472;2023-03-12T05:04:18;2.40;;;2.20;;
1693;SDS011;844;47.058;15.472;2023-03-12T05:06:50;2.93;;;2.73;;
1693;SDS011;844;47.058;15.472;2023-03-12T05:09:20;3.20;;;2.70;;
1693;SDS011;844;47.058;15.472;2023-03-12T05:11:52;3.03;;;2.73;;
1693;SDS011;844;47.058;15.472;2023-03-12T05:14:25;3.87;;;3.13;;
1693;SDS011;844;47.058;15.472;2023-03-12T05:16:57;2.30;;;2.10;;
1693;SDS011;844;47.058;15.472;2023-03-12T05:19:28;3.30;;;3.00;;
1693;SDS011;844;47.058;15.472;2023-03-12T05:22:01;3.33;;;2.43;;
1693;SDS011;844;47.058;15.472;2023-03-12T05:24:33;2.40;;;2.00;;
1693;SDS011;844;47.058;15.472;2023-03-12T05:27:06;2.80;;;2.50;;
1693;SDS011;844;47.058;15.472;2023-03-12T05:29:40;3.33;;;2.87;;
1693;SDS011;844;47.058;15.472;2023-03-12T05:32:13;3.67;;;2.67;;
1693;SDS011;844;47.058;15.472;2023-03-12T05:34:44;4.60;;;2.90;;
1693;SDS011;844;47.058;15.472;2023-03-12T05:37:16;4.60;;;3.57;;
1693;SDS011;844;47.058;15.472;2023-03-12T05:39:47;3.73;;;3.30;;
1693;SDS011;844;47.058;15.472;2023-03-12T05:42:18;4.23;;;3.83;;
1693;SDS011;844;47.058;15.472;2023-03-12T05:44:55;4.23;;;3.67;;
1693;SDS011;844;47.058;15.472;2023-03-12T05:47:28;5.57;;;4.57;;
1693;SDS011;844;47.058;15.472;2023-03-12T05:49:59;3.80;;;3.50;;
1693;SDS011;844;47.058;15.472;2023-03-12T05:52:30;3.97;;;3.53;;
1693;SDS011;844;47.058;15.472;2023-03-12T05:55:01;4.37;;;3.70;;
1693;SDS011;844;47.058;15.472;2023-03-12T05:57:34;3.43;;;3.10;;
1693;SDS011;844;47.058;15.472;2023-03-12T06:00:11;4.40;;;3.73;;
1693;SDS011;844;47.058;15.472;2023-03-12T06:02:44;4.40;;;3.27;;
1693;SDS011;844;47.058;15.472;2023-03-12T06:05:15;5.87;;;5.27;;
1693;SDS011;844;47.058;15.472;2023-03-12T06:07:48;6.03;;;5.23;;
1693;SDS011;844;47.058;15.472;2023-03-12T06:10:20;7.80;;;5.90;;
1693;SDS011;844;47.058;15.472;2023-03-12T06:12:52;5.80;;;5.30;;
1693;SDS011;844;47.058;15.472;2023-03-12T06:15:26;6.50;;;3.87;;
1693;SDS011;844;47.058;15.472;2023-03-12T06:17:57;4.97;;;3.90;;
1693;SDS011;844;47.058;15.472;2023-03-12T06:20:28;5.20;;;4.20;;
1693;SDS011;844;47.058;15.472;2023-03-12T06:22:59;4.10;;;2.97;;
1693;SDS011;844;47.058;15.472;2023-03-12T06:25:29;3.07;;;2.87;;
1693;SDS011;844;47.058;15.472;2023-03-12T06:28:00;5.17;;;3.03;;
1693;SDS011;844;47.058;15.472;2023-03-12T06:30:32;3.87;;;2.63;;
1693;SDS011;844;47.058;15.472;2023-03-12T06:33:03;3.17;;;2.83;;
1693;SDS011;844;47.058;15.472;2023-03-12T06:35:35;3.70;;;2.57;;
1693;SDS011;844;47.058;15.472;2023-03-12T06:38:07;4.30;;;2.40;;
1693;SDS011;844;47.058;15.472;2023-03-12T06:40:41;2.53;;;2.33;;
1693;SDS011;844;47.058;15.472;2023-03-12T06:43:14;4.23;;;2.80;;
1693;SDS011;844;47.058;15.472;2023-03-12T06:45:46;3.97;;;3.00;;
1693;SDS011;844;47.058;15.472;2023-03-12T06:48:17;3.27;;;2.63;;
1693;SDS011;844;47.058;15.472;2023-03-12T06:50:48;4.30;;;2.37;;
1693;SDS011;844;47.058;15.472;2023-03-12T06:53:19;4.43;;;2.23;;
1693;SDS011;844;47.058;15.472;2023-03-12T06:55:51;1.80;;;1.50;;
1693;SDS011;844;47.058;15.472;2023-03-12T06:58:22;3.43;;;2.40;;
1693;SDS011;844;47.058;15.472;2023-03-12T07:00:53;4.20;;;2.50;;
1693;SDS011;844;47.058;15.472;2023-03-12T07:03:23;4.90;;;2.37;;
1693;SDS011;844;47.058;15.472;2023-03-12T07:05:54;4.50;;;1.67;;
1693;SDS011;844;47.058;15.472;2023-03-12T07:08:26;2.87;;;2.00;;
1693;SDS011;844;47.058;15.472;2023-03-12T07:10:58;4.10;;;2.37;;
1693;SDS011;844;47.058;15.472;2023-03-12T07:13:29;2.10;;;1.87;;
1693;SDS011;844;47.058;15.472;2023-03-12T07:16:02;2.30;;;1.80;;
1693;SDS011;844;47.058;15.472;2023-03-12T07:18:34;3.30;;;2.00;;
1693;SDS011;844;47.058;15.472;2023-03-12T07:21:07;2.80;;;2.17;;
1693;SDS011;844;47.058;15.472;2023-03-12T07:23:38;3.90;;;2.33;;
1693;SDS011;844;47.058;15.472;2023-03-12T07:26:09;4.50;;;2.30;;
1693;SDS011;844;47.058;15.472;2023-03-12T07:28:39;2.77;;;2.50;;
1693;SDS011;844;47.058;15.472;2023-03-12T07:31:12;3.43;;;2.50;;
1693;SDS011;844;47.058;15.472;2023-03-12T07:33:42;3.10;;;2.60;;
1693;SDS011;844;47.058;15.472;2023-03-12T07:36:14;2.90;;;2.10;;
1693;SDS011;844;47.058;15.472;2023-03-12T07:38:44;3.23;;;2.47;;
1693;SDS011;844;47.058;15.472;2023-03-12T07:41:16;4.13;;;2.37;;
1693;SDS011;844;47.058;15.472;2023-03-12T07:43:46;2.77;;;2.30;;
1693;SDS011;844;47.058;15.472;2023-03-12T07:46:18;3.17;;;2.87;;
1693;SDS011;844;47.058;15.472;2023-03-12T07:48:50;4.17;;;2.60;;
1693;SDS011;844;47.058;15.472;2023-03-12T07:51:19;2.83;;;2.23;;
1693;SDS011;844;47.058;15.472;2023-03-12T07:53:50;3.00;;;2.57;;
1693;SDS011;844;47.058;15.472;2023-03-12T07:56:21;2.43;;;2.23;;
1693;SDS011;844;47.058;15.472;2023-03-12T07:58:52;2.80;;;2.60;;
1693;SDS011;844;47.058;15.472;2023-03-12T08:01:25;2.77;;;2.57;;
1693;SDS011;844;47.058;15.472;2023-03-12T08:03:59;2.43;;;2.20;;
1693;SDS011;844;47.058;15.472;2023-03-12T08:06:32;3.97;;;2.23;;
1693;SDS011;844;47.058;15.472;2023-03-12T08:09:05;5.37;;;3.00;;
1693;SDS011;844;47.058;15.472;2023-03-12T08:11:36;4.00;;;3.60;;
1693;SDS011;844;47.058;15.472;2023-03-12T08:14:07;2.80;;;2.53;;
1693;SDS011;844;47.058;15.472;2023-03-12T08:16:39;3.67;;;2.63;;
1693;SDS011;844;47.058;15.472;2023-03-12T08:19:11;5.40;;;4.90;;
1693;SDS011;844;47.058;15.472;2023-03-12T08:21:41;4.27;;;2.50;;
1693;SDS011;844;47.058;15.472;2023-03-12T08:24:12;2.80;;;2.20;;
1693;SDS011;844;47.058;15.472;2023-03-12T08:26:42;3.33;;;2.87;;
1693;SDS011;844;47.058;15.472;2023-03-12T08:29:12;3.53;;;2.80;;
1693;SDS011;844;47.058;15.472;2023-03-12T08:31:47;3.40;;;3.10;;
1693;SDS011;844;47.058;15.472;2023-03-12T08:34:31;3.50;;;2.83;;
1693;SDS011;844;47.058;15.472;2023-03-12T08:37:01;2.70;;;2.17;;
1693;SDS011;844;47.058;15.472;2023-03-12T08:39:34;3.00;;;2.70;;
1693;SDS011;844;47.058;15.472;2023-03-12T08:42:05;3.77;;;2.20;;
1693;SDS011;844;47.058;15.472;2023-03-12T08:44:35;4.13;;;3.20;;
1693;SDS011;844;47.058;15.472;2023-03-12T08:47:10;3.00;;;2.80;;
1693;SDS011;844;47.058;15.472;2023-03-12T08:49:40;3.10;;;2.70;;
1693;SDS011;844;47.058;15.472;2023-03-12T08:52:14;3.80;;;2.90;;
1693;SDS011;844;47.058;15.472;2023-03-12T08:54:44;3.13;;;2.40;;
1693;SDS011;844;47.058;15.472;2023-03-12T08:57:15;3.33;;;2.60;;
1693;SDS011;844;47.058;15.472;2023-03-12T08:59:46;2.67;;;2.33;;
1693;SDS011;844;47.058;15.472;2023-03-12T09:02:19;3.33;;;3.03;;
1693;SDS011;844;47.058;15.472;2023-03-12T09:04:51;3.50;;;2.87;;
1693;SDS011;844;47.058;15.472;2023-03-12T09:07:22;2.83;;;2.53;;
1693;SDS011;844;47.058;15.472;2023-03-12T09:09:56;3.07;;;2.60;;
1693;SDS011;844;47.058;15.472;2023-03-12T09:12:33;2.27;;;2.07;;
1693;SDS011;844;47.058;15.472;2023-03-12T09:15:06;3.30;;;3.00;;
1693;SDS011;844;47.058;15.472;2023-03-12T09:17:40;3.47;;;3.17;;
1693;SDS011;844;47.058;15.472;2023-03-12T09:20:11;3.30;;;2.77;;
1693;SDS011;844;47.058;15.472;2023-03-12T09:22:42;4.80;;;2.70;;
1693;SDS011;844;47.058;15.472;2023-03-12T09:25:12;2.87;;;2.67;;
1693;SDS011;844;47.058;15.472;2023-03-12T09:27:44;3.10;;;2.80;;
1693;SDS011;844;47.058;15.472;2023-03-12T09:30:16;3.87;;;2.73;;
1693;SDS011;844;47.058;15.472;2023-03-12T09:32:52;3.50;;;3.20;;
1693;SDS011;844;47.058;15.472;2023-03-12T09:35:23;3.50;;;3.20;;
1693;SDS011;844;47.058;15.472;2023-03-12T09:37:53;3.50;;;3.10;;
1693;SDS011;844;47.058;15.472;2023-03-12T09:40:24;5.40;;;3.67;;
1693;SDS011;844;47.058;15.472;2023-03-12T09:42:57;3.60;;;2.93;;
1693;SDS011;844;47.058;15.472;2023-03-12T09:45:31;3.37;;;2.93;;
1693;SDS011;844;47.058;15.472;2023-03-12T09:48:12;3.20;;;2.97;;
1693;SDS011;844;47.058;15.472;2023-03-12T09:50:45;3.00;;;2.70;;
1693;SDS011;844;47.058;15.472;2023-03-12T09:53:19;4.13;;;2.97;;
1693;SDS011;844;47.058;15.472;2023-03-12T09:55:56;2.80;;;2.60;;
1693;SDS011;844;47.058;15.472;2023-03-12T09:58:30;3.57;;;2.93;;
1693;SDS011;844;47.058;15.472;2023-03-12T10:01:06;5.10;;;2.43;;
1693;SDS011;844;47.058;15.472;2023-03-12T10:03:49;3.87;;;3.50;;
1693;SDS011;844;47.058;15.472;2023-03-12T10:06:40;3.57;;;3.00;;
1693;SDS011;844;47.058;15.472;2023-03-12T10:09:23;3.10;;;2.80;;
1693;SDS011;844;47.058;15.472;2023-03-12T10:12:06;3.00;;;2.70;;
1693;SDS011;844;47.058;15.472;2023-03-12T10:14:46;3.23;;;2.93;;
1693;SDS011;844;47.058;15.472;2023-03-12T10:17:37;4.00;;;3.20;;
1693;SDS011;844;47.058;15.472;2023-03-12T10:20:31;3.63;;;3.33;;
1693;SDS011;844;47.058;15.472;2023-03-12T10:23:15;5.67;;;3.90;;
1693;SDS011;844;47.058;15.472;2023-03-12T10:25:51;4.67;;;3.27;;
1693;SDS011;844;47.058;15.472;2023-03-12T10:28:29;6.73;;;3.53;;
1693;SDS011;844;47.058;15.472;2023-03-12T10:31:03;4.13;;;3.50;;
1693;SDS011;844;47.058;15.472;2023-03-12T10:33:38;3.07;;;2.83;;
1693;SDS011;844;47.058;15.472;2023-03-12T10:36:16;3.20;;;2.97;;
1693;SDS011;844;47.058;15.472;2023-03-12T10:38:49;3.67;;;3.43;;
1693;SDS011;844;47.058;15.472;2023-03-12T10:41:22;4.00;;;2.80;;
1693;SDS011;844;47.058;15.472;2023-03-12T10:43:56;3.60;;;3.20;;
1693;SDS011;844;47.058;15.472;2023-03-12T10:46:37;6.07;;;3.70;;
1693;SDS011;844;47.058;15.472;2023-03-12T10:49:22;3.87;;;3.57;;
1693;SDS011;844;47.058;15.472;2023-03-12T10:51:59;3.63;;;3.13;;
1693;SDS011;844;47.058;15.472;2023-03-12T10:54:33;4.07;;;2.90;;
1693;SDS011;844;47.058;15.472;2023-03-12T10:57:07;4.33;;;2.97;;
1693;SDS011;844;47.058;15.472;2023-03-12T10:59:39;4.30;;;3.83;;
1693;SDS011;844;47.058;15.472;2023-03-12T11:02:23;5.63;;;3.87;;
1693;SDS011;844;47.058;15.472;2023-03-12T11:05:02;4.93;;;3.50;;
1693;SDS011;844;47.058;15.472;2023-03-12T11:07:37;3.80;;;3.50;;
1693;SDS011;844;47.058;15.472;2023-03-12T11:10:21;4.43;;;4.03;;
1693;SDS011;844;47.058;15.472;2023-03-12T11:13:00;3.23;;;2.80;;
1693;SDS011;844;47.058;15.472;2023-03-12T11:15:38;3.80;;;3.50;;
1693;SDS011;844;47.058;15.472;2023-03-12T11:21:16;3.70;;;3.30;;
1693;SDS011;844;47.058;15.472;2023-03-12T11:24:08;3.80;;;3.13;;
1693;SDS011;844;47.058;15.472;2023-03-12T11:26:46;3.60;;;3.30;;
1693;SDS011;844;47.058;15.472;2023-03-12T11:29:27;8.23;;;3.73;;
1693;SDS011;844;47.058;15.472;2023-03-12T11:32:02;3.70;;;2.73;;
1693;SDS011;844;47.058;15.472;2023-03-12T11:34:37;3.23;;;2.93;;
1693;SDS011;844;47.058;15.472;2023-03-12T11:37:13;3.70;;;3.10;;
1693;SDS011;844;47.058;15.472;2023-03-12T11:42:53;3.70;;;3.33;;
1693;SDS011;844;47.058;15.472;2023-03-12T11:45:44;4.03;;;3.63;;
1693;SDS011;844;47.058;15.472;2023-03-12T11:48:22;4.00;;;3.60;;
1693;SDS011;844;47.058;15.472;2023-03-12T11:51:02;3.80;;;3.07;;
1693;SDS011;844;47.058;15.472;2023-03-12T11:53:45;4.83;;;4.13;;
1693;SDS011;844;47.058;15.472;2023-03-12T11:56:31;3.97;;;3.57;;
1693;SDS011;844;47.058;15.472;2023-03-12T11:59:18;3.03;;;2.67;;
1693;SDS011;844;47.058;15.472;2023-03-12T12:02:13;4.30;;;3.90;;
1693;SDS011;844;47.058;15.472;2023-03-12T12:05:09;2.53;;;2.33;;
1693;SDS011;844;47.058;15.472;2023-03-12T12:07:54;3.53;;;3.23;;
1693;SDS011;844;47.058;15.472;2023-03-12T12:10:40;4.60;;;3.53;;
1693;SDS011;844;47.058;15.472;2023-03-12T12:13:23;2.67;;;2.47;;
1693;SDS011;844;47.058;15.472;2023-03-12T12:16:01;3.17;;;2.80;;
1693;SDS011;844;47.058;15.472;2023-03-12T12:18:50;3.50;;;3.20;;
1693;SDS011;844;47.058;15.472;2023-03-12T12:21:35;3.27;;;3.07;;
1693;SDS011;844;47.058;15.472;2023-03-12T12:24:17;3.50;;;2.93;;
1693;SDS011;844;47.058;15.472;2023-03-12T12:26:57;3.07;;;2.83;;
1693;SDS011;844;47.058;15.472;2023-03-12T12:29:47;4.00;;;3.60;;
1693;SDS011;844;47.058;15.472;2023-03-12T12:32:36;4.40;;;3.70;;
1693;SDS011;844;47.058;15.472;2023-03-12T12:35:19;3.00;;;2.80;;
1693;SDS011;844;47.058;15.472;2023-03-12T12:37:57;4.67;;;3.20;;
1693;SDS011;844;47.058;15.472;2023-03-12T12:40:30;2.57;;;2.37;;
1693;SDS011;844;47.058;15.472;2023-03-12T12:43:08;3.57;;;3.23;;
1693;SDS011;844;47.058;15.472;2023-03-12T12:45:48;3.23;;;2.70;;
1693;SDS011;844;47.058;15.472;2023-03-12T12:48:21;3.10;;;2.70;;
1693;SDS011;844;47.058;15.472;2023-03-12T12:50:55;4.10;;;3.10;;
1693;SDS011;844;47.058;15.472;2023-03-12T12:53:29;4.40;;;3.27;;
1693;SDS011;844;47.058;15.472;2023-03-12T12:56:07;3.67;;;3.20;;
1693;SDS011;844;47.058;15.472;2023-03-12T12:58:50;2.80;;;2.60;;
1693;SDS011;844;47.058;15.472;2023-03-12T13:01:53;2.60;;;2.40;;
1693;SDS011;844;47.058;15.472;2023-03-12T13:04:26;3.00;;;2.70;;
1693;SDS011;844;47.058;15.472;2023-03-12T13:07:00;3.50;;;3.20;;
1693;SDS011;844;47.058;15.472;2023-03-12T13:09:39;4.80;;;3.33;;
1693;SDS011;844;47.058;15.472;2023-03-12T13:12:17;3.37;;;3.07;;
1693;SDS011;844;47.058;15.472;2023-03-12T13:14:52;5.50;;;3.07;;
1693;SDS011;844;47.058;15.472;2023-03-12T13:17:32;2.90;;;2.70;;
1693;SDS011;844;47.058;15.472;2023-03-12T13:20:11;3.10;;;2.60;;
1693;SDS011;844;47.058;15.472;2023-03-12T13:22:50;3.10;;;2.80;;
1693;SDS011;844;47.058;15.472;2023-03-12T13:25:35;3.70;;;3.10;;
1693;SDS011;844;47.058;15.472;2023-03-12T13:28:31;4.30;;;3.30;;
1693;SDS011;844;47.058;15.472;2023-03-12T13:37:21;4.47;;;3.10;;
1693;SDS011;844;47.058;15.472;2023-03-12T13:46:40;2.90;;;2.67;;
1693;SDS011;844;47.058;15.472;2023-03-12T13:49:17;3.00;;;2.70;;
1693;SDS011;844;47.058;15.472;2023-03-12T13:54:58;3.87;;;3.27;;
1693;SDS011;844;47.058;15.472;2023-03-12T13:57:33;3.37;;;3.10;;
1693;SDS011;844;47.058;15.472;2023-03-12T14:00:11;4.07;;;3.77;;
1693;SDS011;844;47.058;15.472;2023-03-12T14:02:48;3.60;;;3.00;;
1693;SDS011;844;47.058;15.472;2023-03-12T14:05:21;5.40;;;2.93;;
1693;SDS011;844;47.058;15.472;2023-03-12T14:08:10;2.93;;;2.70;;
1693;SDS011;844;47.058;15.472;2023-03-12T14:10:50;3.00;;;2.27;;
1693;SDS011;844;47.058;15.472;2023-03-12T14:13:33;4.93;;;4.20;;
1693;SDS011;844;47.058;15.472;2023-03-12T14:16:13;2.53;;;2.33;;
1693;SDS011;844;47.058;15.472;2023-03-12T14:18:49;5.70;;;3.60;;
1693;SDS011;844;47.058;15.472;2023-03-12T14:21:23;4.47;;;3.00;;
1693;SDS011;844;47.058;15.472;2023-03-12T14:24:00;4.93;;;3.10;;
1693;SDS011;844;47.058;15.472;2023-03-12T14:26:34;3.67;;;2.80;;
1693;SDS011;844;47.058;15.472;2023-03-12T14:29:05;3.03;;;2.83;;
1693;SDS011;844;47.058;15.472;2023-03-12T14:31:37;3.20;;;2.90;;
1693;SDS011;844;47.058;15.472;2023-03-12T14:34:09;3.67;;;3.33;;
1693;SDS011;844;47.058;15.472;2023-03-12T14:36:49;4.73;;;2.50;;
1693;SDS011;844;47.058;15.472;2023-03-12T14:39:26;2.73;;;2.53;;
1693;SDS011;844;47.058;15.472;2023-03-12T14:42:02;2.43;;;2.23;;
1693;SDS011;844;47.058;15.472;2023-03-12T14:44:34;2.97;;;2.57;;
1693;SDS011;844;47.058;15.472;2023-03-12T14:47:09;4.77;;;3.10;;
1693;SDS011;844;47.058;15.472;2023-03-12T14:49:45;4.03;;;2.97;;
1693;SDS011;844;47.058;15.472;2023-03-12T14:52:21;3.20;;;2.90;;
1693;SDS011;844;47.058;15.472;2023-03-12T14:54:53;3.13;;;2.83;;
1693;SDS011;844;47.058;15.472;2023-03-12T14:57:30;3.13;;;2.83;;
1693;SDS011;844;47.058;15.472;2023-03-12T15:00:00;3.50;;;3.17;;
1693;SDS011;844;47.058;15.472;2023-03-12T15:02:42;3.10;;;2.90;;
1693;SDS011;844;47.058;15.472;2023-03-12T15:05:15;4.30;;;3.00;;
1693;SDS011;844;47.058;15.472;2023-03-12T15:07:46;3.20;;;2.90;;
1693;SDS011;844;47.058;15.472;2023-03-12T15:10:20;2.93;;;2.63;;
1693;SDS011;844;47.058;15.472;2023-03-12T15:12:56;3.07;;;2.80;;
1693;SDS011;844;47.058;15.472;2023-03-12T15:15:30;2.63;;;2.30;;
1693;SDS011;844;47.058;15.472;2023-03-12T15:18:05;3.73;;;3.30;;
1693;SDS011;844;47.058;15.472;2023-03-12T15:20:38;3.00;;;2.77;;
1693;SDS011;844;47.058;15.472;2023-03-12T15:23:08;3.87;;;3.07;;
1693;SDS011;844;47.058;15.472;2023-03-12T15:25:41;3.00;;;2.70;;
1693;SDS011;844;47.058;15.472;2023-03-12T15:31:09;2.90;;;2.70;;
1693;SDS011;844;47.058;15.472;2023-03-12T15:33:43;2.80;;;2.60;;
1693;SDS011;844;47.058;15.472;2023-03-12T15:36:24;3.27;;;2.90;;
1693;SDS011;844;47.058;15.472;2023-03-12T15:38:57;2.93;;;2.63;;
1693;SDS011;844;47.058;15.472;2023-03-12T15:41:39;3.17;;;2.90;;
1693;SDS011;844;47.058;15.472;2023-03-12T15:44:16;4.53;;;3.23;;
1693;SDS011;844;47.058;15.472;2023-03-12T15:46:50;5.53;;;3.70;;
1693;SDS011;844;47.058;15.472;2023-03-12T15:49:22;3.23;;;2.93;;
1693;SDS011;844;47.058;15.472;2023-03-12T15:52:02;2.93;;;2.50;;
1693;SDS011;844;47.058;15.472;2023-03-12T15:54:34;2.37;;;2.17;;
1693;SDS011;844;47.058;15.472;2023-03-12T15:57:10;6.13;;;3.43;;
1693;SDS011;844;47.058;15.472;2023-03-12T16:00:11;3.10;;;2.80;;
1693;SDS011;844;47.058;15.472;2023-03-12T16:02:52;5.40;;;3.50;;
1693;SDS011;844;47.058;15.472;2023-03-12T16:05:25;3.47;;;3.03;;
1693;SDS011;844;47.058;15.472;2023-03-12T16:08:01;2.60;;;2.40;;
1693;SDS011;844;47.058;15.472;2023-03-12T16:10:41;3.40;;;3.10;;
1693;SDS011;844;47.058;15.472;2023-03-12T16:13:13;3.23;;;2.80;;
1693;SDS011;844;47.058;15.472;2023-03-12T16:15:47;4.30;;;3.73;;
1693;SDS011;844;47.058;15.472;2023-03-12T16:18:19;3.73;;;3.43;;
1693;SDS011;844;47.058;15.472;2023-03-12T16:20:50;3.43;;;3.13;;
1693;SDS011;844;47.058;15.472;2023-03-12T16:23:22;4.70;;;3.60;;